Terminal Aerodrome Forecast
Issued by NWS

Home | Current Version | Previous Version | Graphics & Text | Print | Product List | Glossary On
Versions: 1 2 3 4 5 6 7 8 9 10 11 12 13 14 15 16 17 18 19 20
247
FTUS41 KCLE 151720
TAFFDY
TAF
KFDY 151720Z 1518/1618 14003KT 6SM HZ BKN250
     FM160300 12003KT 5SM BR BKN025 OVC120
     FM161200 10003KT 2SM BR OVC008=

USA.gov is the U.S. government's official web portal to all federal, state and local government web resources and services.